Nearby METAR Reports

 

KLOM - Philly Wings F, Pennsylvania, USA
Distance from station: SW 6mi, 10km
Updated: Sat, 20-Dec-2014 12:35am EST
Overcast
Overcast
 Wind from calm
Wind: Calm
Temperature: 34°F , 1°C
Dew Point: 23°F , -5°C
Humidity: 65%
Barometer: 30.18 inHg , 1022 hPa
Clouds: Overcast
Visibility: 10 miles , 16 km
Cloud details: Overcast 3100 ft
2014/12/20 05:35 KLOM 200535Z AUTO 00000KT 10SM OVC031 01/M05 A3018 RMK AO1
KDYL - Doylestown, Pennsylvania, USA
Distance from station: NNE 10mi, 17km
Updated: Fri, 19-Dec-2014 11:54pm EST
Overcast
Overcast
 Wind from NNW
Wind: NNW 7 mph , 11 km/h
Temperature: 30°F , -1°C
Wind Chill: 23°F , -5°C
Dew Point: 21°F , -6°C
Humidity: 69%
Barometer: 30.18 inHg , 1022 hPa
Clouds: Overcast
Visibility: 10 miles , 16 km
Cloud details: Overcast 2800 ft
2014/12/20 04:54 KDYL 200454Z AUTO 33006KT 10SM OVC028 M01/M06 A3018 RMK AO2 SLP226 T10061056 400391017
KPNE - Philadelphia/Ne, Pennsylvania, USA
Distance from station: SE 11mi, 18km
Updated: Fri, 19-Dec-2014 11:54pm EST
Overcast
Overcast
 Wind from N
Wind: N 5 mph , 7 km/h
Temperature: 34°F , 1°C
Wind Chill: 29°F , -2°C
Dew Point: 19°F , -7°C
Humidity: 56%
Barometer: 30.21 inHg , 1023 hPa
Clouds: Overcast
Visibility: 10 miles , 16 km
Cloud details: Overcast 3200 ft
2014/12/20 04:54 KPNE 200454Z AUTO 35004KT 10SM OVC032 01/M07 A3021 RMK AO2 SLP232 T00111067 400611011 TSNO $
 
KPTW - Pottstown, Pennsylvania, USA
Distance from station: W 20mi, 32km
Updated: Fri, 19-Dec-2014 11:54pm EST
Overcast
Overcast
 Wind from NNW
Wind: NNW 6 mph , 9 km/h
Temperature: 34°F , 1°C
Wind Chill: 29°F , -2°C
Dew Point: 21°F , -6°C
Humidity: 60%
Barometer: 30.20 inHg , 1022.7 hPa
Clouds: Overcast
Visibility: 10 miles , 16 km
Cloud details: Overcast 3300 ft
2014/12/20 04:54 KPTW 200454Z AUTO 33005KT 10SM OVC033 01/M06 A3020 RMK AO2 SLP227 T00061061 400500000
KTTN - Trenton, New Jersey, USA
Distance from station: ENE 20mi, 32km
Updated: Fri, 19-Dec-2014 11:53pm EST
Overcast
Overcast
 Wind from NNW
Wind: NNW 5 mph , 7 km/h
Temperature: 32°F , 0°C
Wind Chill: 27°F , -3°C
Dew Point: 19°F , -7°C
Humidity: 60%
Barometer: 30.19 inHg , 1022.4 hPa
Clouds: Overcast
Visibility: 10 miles , 16 km
Cloud details: Overcast 2700 ft
2014/12/20 04:53 KTTN 200453Z AUTO 33004KT 10SM OVC027 00/M07 A3019 RMK AO2 SLP219 T00001067 400441011
KUKT - Quakertown Arp, Pennsylvania, USA
Distance from station: NNW 20mi, 32km
Updated: Sat, 20-Dec-2014 12:35am EST
Overcast
Overcast
 Wind from N
Wind: N 5 mph , 7 km/h
Temperature: 32°F , 0°C
Wind Chill: 27°F , -3°C
Dew Point: 23°F , -5°C
Humidity: 69%
Barometer: 30.18 inHg , 1022 hPa
Clouds: Overcast
Visibility: 10 miles , 16 km
Cloud details: Overcast 2600 ft
2014/12/20 05:35 KUKT 200535Z AUTO 01004KT 10SM OVC026 00/M05 A3018 RMK AO1
 
KPHL - Philadelphia, Pennsylvania, USA
Distance from station: S 22mi, 36km
Updated: Fri, 19-Dec-2014 11:54pm EST
Overcast
Overcast
 Wind from varies
Wind: varies 5 mph , 7 km/h
Temperature: 34°F , 1°C
Wind Chill: 29°F , -2°C
Dew Point: 19°F , -7°C
Humidity: 56%
Barometer: 30.22 inHg , 1023.4 hPa
Clouds: Overcast
Visibility: 10 miles , 16 km
Cloud details: Overcast 3500 ft
2014/12/20 04:54 KPHL 200454Z VRB04KT 10SM OVC035 01/M07 A3022 RMK AO2 SLP232 T00111067 400560006
KVAY - Mount Holly, New Jersey, USA
Distance from station: SE 25mi, 41km
Updated: Fri, 19-Dec-2014 11:54pm EST
Overcast
Overcast
 Wind from calm
Wind: Calm
Temperature: 28°F , -2°C
Dew Point: 19°F , -7°C
Humidity: 69%
Barometer: 30.20 inHg , 1022.7 hPa
Clouds: Overcast
Visibility: 10 miles , 16 km
Cloud details: Overcast 3200 ft
2014/12/20 04:54 KVAY 200454Z AUTO 00000KT 10SM OVC032 M02/M07 A3020 RMK AO2 SLP228 T10171067 400501022
KXLL - Allentown Queen, Pennsylvania, USA
Distance from station: NNW 31mi, 49km
Updated: Sat, 20-Dec-2014 12:35am EST
Overcast
Overcast
 Wind from N
Wind: N 9 mph , 15 km/h
Temperature: 32°F , 0°C
Wind Chill: 24°F , -4°C
Dew Point: 23°F , -5°C
Humidity: 69%
Barometer: 30.20 inHg , 1022.7 hPa
Clouds: Overcast
Visibility: 10 miles , 16 km
Cloud details: Overcast 2800 ft
2014/12/20 05:35 KXLL 200535Z AUTO 35008KT 10SM OVC028 00/M05 A3020 RMK AO2
 
KWRI - Wrightst/Mcguire, New Jersey, USA
Distance from station: ESE 34mi, 54km
Updated: Fri, 19-Dec-2014 11:58pm EST
Overcast
Overcast
 Wind from NW
Wind: NW 6 mph , 9 km/h
Temperature: 28°F , -2°C
Wind Chill: 21°F , -6°C
Dew Point: 21°F , -6°C
Humidity: 74%
Barometer: 30.17 inHg , 1021.7 hPa
Clouds: Overcast
Visibility: 10 miles , 16 km
Cloud details: Overcast 2900 ft
2014/12/20 04:58 KWRI 200458Z AUTO 31005KT 10SM OVC029 M02/M06 A3017 RMK AO2 SLP221 T10161060 400511016
KABE - Allentown, Pennsylvania, USA
Distance from station: NNW 35mi, 56km
Updated: Fri, 19-Dec-2014 11:51pm EST
Overcast
Overcast
 Wind from NNW
Wind: NNW 5 mph , 7 km/h
Temperature: 32°F , 0°C
Wind Chill: 27°F , -3°C
Dew Point: 21°F , -6°C
Humidity: 64%
Barometer: 30.19 inHg , 1022.4 hPa
Clouds: Overcast
Visibility: 10 miles , 16 km
Cloud details: Overcast 2800 ft
2014/12/20 04:51 KABE 200451Z 33004KT 10SM OVC028 00/M06 A3019 RMK AO2 SLP227 T00001056 400390000
KMQS - Coatesville, Pennsylvania, USA
Distance from station: WSW 39mi, 63km
Updated: Sat, 20-Dec-2014 12:35am EST
Overcast
Overcast
 Wind from WNW
Wind: WNW 5 mph , 7 km/h
Temperature: 32°F , 0°C
Wind Chill: 27°F , -3°C
Dew Point: 25°F , -4°C
Humidity: 75%
Barometer: 30.18 inHg , 1022 hPa
Clouds: Overcast
Visibility: 10 miles , 16 km
Cloud details: Overcast 3200 ft
2014/12/20 05:35 KMQS 200535Z AUTO 29004KT 10SM OVC032 00/M04 A3018 RMK AO2
 
KSMQ - Somerville, New Jersey, USA
Distance from station: NE 40mi, 64km
Updated: Fri, 19-Dec-2014 11:53pm EST
Overcast
Overcast
 Wind from NNW
Wind: NNW 9 mph , 15 km/h
Temperature: 34°F , 1°C
Wind Chill: 27°F , -3°C
Dew Point: 21°F , -6°C
Humidity: 60%
Barometer: 30.19 inHg , 1022.4 hPa
Clouds: Overcast
Visibility: 10 miles , 16 km
Cloud details: Overcast 2900 ft
2014/12/20 04:53 KSMQ 200453Z AUTO 33008KT 10SM OVC029 01/M06 A3019 RMK AO2 SLP224 T00061061 400390000
KILG - Wilmington, Delaware, USA
Distance from station: SSW 42mi, 68km
Updated: Fri, 19-Dec-2014 11:51pm EST
Clear
Clear
 Wind from WSW
Wind: WSW 5 mph , 7 km/h
Temperature: 28°F , -2°C
Wind Chill: 22°F , -6°C
Dew Point: 21°F , -6°C
Humidity: 74%
Barometer: 30.22 inHg , 1023.4 hPa
Clouds: Clear
Visibility: 10 miles , 16 km
2014/12/20 04:51 KILG 200451Z 25004KT 10SM CLR M02/M06 A3022 RMK AO2 SLP235 T10171061 400611028
KRDG - Reading, Pennsylvania, USA
Distance from station: WNW 43mi, 70km
Updated: Fri, 19-Dec-2014 11:54pm EST
Overcast
Overcast
 Wind from NNW
Wind: NNW 6 mph , 9 km/h
Temperature: 34°F , 1°C
Wind Chill: 29°F , -2°C
Dew Point: 21°F , -6°C
Humidity: 60%
Barometer: 30.19 inHg , 1022.4 hPa
Clouds: Overcast
Visibility: 10 miles , 16 km
Cloud details: Overcast 3700 ft
2014/12/20 04:54 KRDG 200454Z AUTO 34005KT 10SM OVC037 01/M06 A3019 RMK AO2 SLP232 T00111061 400560006
 
KNEL - Lakehurst Nas, New Jersey, USA
Distance from station: ESE 46mi, 74km
Updated: Mon, 06-Oct-2014 4:00pm EDT
NOT Current
Clear
Clear
 Wind from S
Wind: S 15 mph , 24 km/h, Gust: 23 mph , 37 km/h
Temperature: 70°F , 21°C
Dew Point: 46°F , 8°C
Humidity: 43%
Barometer: 30.01 inHg , 1016.3 hPa
Clouds: Clear
Visibility: 10 miles , 16 km
2014/10/06 20:00 KNEL 062000Z AUTO 17013G20KT 10SM CLR 21/08 A3001 RMK AO2 SLP163 T02110083 $
KMJX - Toms River, New Jersey, USA
Distance from station: ESE 50mi, 80km
Updated: Sat, 20-Dec-2014 12:35am EST
Overcast
Overcast
 Wind from calm
Wind: Calm
Temperature: 30°F , -1°C
Dew Point: 21°F , -6°C
Humidity: 69%
Barometer: 30.20 inHg , 1022.7 hPa
Clouds: Overcast
Visibility: 10 miles , 16 km
Cloud details: Overcast 2700 ft
2014/12/20 05:35 KMJX 200535Z AUTO 00000KT 10SM OVC027 M01/M06 A3020 RMK AO1